Terminal Aerodrome Forecast
Issued by NWS

Home | Current Version | Previous Version | Text Only | Print | Product List | Glossary On
Versions: 1 2 3 4 5 6 7 8 9 10 11 12 13 14
000
FTUS45 KREV 062050 AAA
TAFTVL
TAF AMD
KTVL 062050Z 0621/0718 VRB04KT P6SM BKN035
     FM070100 VRB04KT P6SM -SHRA SCT010 OVC025
     FM070400 VRB03KT P6SM VCSH SCT015 BKN030
     FM071100 VRB04KT 3SM RA BR SCT009 OVC020=

USA.gov is the U.S. government's official web portal to all federal, state and local government web resources and services.